createdAt,value
2022-09-07T00:01:41.990Z,63.49
2022-09-07T00:06:43.539Z,63.97
2022-09-07T00:11:45.206Z,66.03
2022-09-07T00:16:46.722Z,68.33
2022-09-07T00:21:48.320Z,72.73
2022-09-07T00:26:49.910Z,74.24
2022-09-07T00:31:51.504Z,76.94
2022-09-07T00:36:53.062Z,75.95
2022-09-07T00:41:54.570Z,77.80
2022-09-07T00:46:56.350Z,78.39
2022-09-07T00:52:03.142Z,79.02
2022-09-07T00:57:05.494Z,79.65
2022-09-07T01:02:08.148Z,78.35
2022-09-07T01:07:09.906Z,72.30
2022-09-07T01:12:11.448Z,76.24
2022-09-07T01:17:41.969Z,81.67
2022-09-07T01:23:04.388Z,74.72
2022-09-07T01:28:22.716Z,77.69
2022-09-07T01:33:32.513Z,77.14
2022-09-07T01:38:36.784Z,78.84
2022-09-07T01:44:03.383Z,78.43
2022-09-07T01:49:17.574Z,77.51
2022-09-07T01:54:27.624Z,78.98
2022-09-07T01:59:45.935Z,77.93
2022-09-07T02:04:55.480Z,78.10
2022-09-07T02:10:10.692Z,78.51
2022-09-07T02:15:20.966Z,78.75
2022-09-07T02:20:31.451Z,74.69
2022-09-07T02:25:45.730Z,79.46
2022-09-07T02:30:47.479Z,78.88
2022-09-07T02:35:49.117Z,77.61
2022-09-07T02:40:55.174Z,79.47
2022-09-07T02:46:15.328Z,80.31
2022-09-07T02:51:22.692Z,78.00
2022-09-07T02:56:46.065Z,78.01
2022-09-07T03:01:59.619Z,78.12
2022-09-07T03:07:35.779Z,77.17
2022-09-07T03:12:46.063Z,76.15
2022-09-07T03:17:48.354Z,80.75
2022-09-07T03:22:51.665Z,78.33
2022-09-07T03:27:53.278Z,81.11
2022-09-07T03:32:54.761Z,84.49
2022-09-07T03:37:56.259Z,85.13
2022-09-07T03:42:57.686Z,79.99
2022-09-07T03:47:59.101Z,77.12
2022-09-07T03:53:00.589Z,83.52
2022-09-07T03:58:02.014Z,83.87
2022-09-07T04:03:03.520Z,83.79
2022-09-07T04:08:05.036Z,83.08
2022-09-07T04:13:07.296Z,80.85
2022-09-07T04:18:08.853Z,83.86
2022-09-07T04:23:10.402Z,87.21
2022-09-07T04:28:11.859Z,81.42
2022-09-07T04:33:14.486Z,83.68
2022-09-07T04:38:16.582Z,81.21
2022-09-07T04:43:18.095Z,80.39
2022-09-07T04:48:19.535Z,80.96
2022-09-07T04:53:20.965Z,84.33
2022-09-07T04:58:22.438Z,85.12
2022-09-07T05:03:23.897Z,83.58
2022-09-07T05:08:25.335Z,80.36
2022-09-07T05:13:28.972Z,86.27
2022-09-07T05:18:30.480Z,82.29
2022-09-07T05:23:31.929Z,78.27
2022-09-07T05:28:34.835Z,81.59
2022-09-07T05:38:59.193Z,83.18
2022-09-07T05:49:22.172Z,84.33
2022-09-07T05:54:23.722Z,78.93
2022-09-07T05:59:25.190Z,79.26
2022-09-07T06:04:26.615Z,80.37
2022-09-07T06:09:30.515Z,79.90
2022-09-07T06:14:33.558Z,81.89
2022-09-07T06:19:35.007Z,81.63
2022-09-07T06:24:36.432Z,79.31
2022-09-07T06:29:37.883Z,81.36
2022-09-07T06:34:39.316Z,81.28
2022-09-07T06:39:40.875Z,83.83
2022-09-07T06:44:42.396Z,87.54
2022-09-07T06:49:43.828Z,90.56
2022-09-07T06:55:00.990Z,87.96
2022-09-07T07:00:03.378Z,90.34
2022-09-07T07:05:05.151Z,84.71
2022-09-07T07:10:06.993Z,83.87
2022-09-07T07:15:09.014Z,82.99
2022-09-07T07:20:10.662Z,81.05
2022-09-07T07:25:12.115Z,80.99
2022-09-07T07:30:17.729Z,85.81
2022-09-07T07:35:19.210Z,83.42
2022-09-07T07:40:23.551Z,84.33
2022-09-07T07:50:58.574Z,81.08
2022-09-07T07:56:00.868Z,82.65
2022-09-07T08:01:05.297Z,82.03
2022-09-07T08:06:09.041Z,82.36
2022-09-07T08:11:13.064Z,79.72
2022-09-07T08:16:15.097Z,79.60
2022-09-07T08:21:16.881Z,79.47
2022-09-07T08:26:18.233Z,83.29
2022-09-07T08:31:19.630Z,84.28
2022-09-07T08:36:21.529Z,81.94
2022-09-07T08:41:31.942Z,81.52
2022-09-07T08:46:38.613Z,82.80
2022-09-07T08:51:47.461Z,81.52
2022-09-07T09:06:10.831Z,83.71
2022-09-07T09:07:52.609Z,82.27
2022-09-07T09:13:09.454Z,80.53
2022-09-07T09:18:35.089Z,81.68
2022-09-07T09:23:44.608Z,82.49
2022-09-07T09:28:45.969Z,82.43
2022-09-07T09:34:05.706Z,88.19
2022-09-07T09:39:37.106Z,85.22
2022-09-07T09:44:39.463Z,84.98
2022-09-07T09:49:40.959Z,84.26
2022-09-07T09:54:44.657Z,84.59
2022-09-07T10:00:05.547Z,82.29
2022-09-07T10:05:30.243Z,80.34
2022-09-07T10:10:32.153Z,84.10
2022-09-07T10:15:40.522Z,80.94
2022-09-07T10:20:42.552Z,80.46
2022-09-07T10:25:47.468Z,80.21
2022-09-07T10:31:00.975Z,80.69
2022-09-07T10:36:23.658Z,80.42
2022-09-07T10:41:46.864Z,79.31
2022-09-07T10:47:09.304Z,79.32
2022-09-07T10:52:38.722Z,79.69
2022-09-07T10:57:58.031Z,78.90
2022-09-07T11:03:40.891Z,79.41
2022-09-07T11:09:21.068Z,76.99
2022-09-07T11:14:25.411Z,76.89
2022-09-07T11:19:37.882Z,77.21
2022-09-07T11:30:27.266Z,75.75
2022-09-07T11:35:44.720Z,76.16
2022-09-07T11:40:58.515Z,75.86
2022-09-07T11:46:24.872Z,75.27
2022-09-07T11:51:53.638Z,75.21
2022-09-07T11:57:36.959Z,74.99
2022-09-07T12:03:02.780Z,74.22
2022-09-07T12:08:17.778Z,72.13
2022-09-07T12:13:42.395Z,72.30
2022-09-07T12:18:43.695Z,72.08
2022-09-07T12:23:46.359Z,72.33
2022-09-07T12:28:50.721Z,71.88
2022-09-07T12:34:38.263Z,72.28
2022-09-07T12:39:43.802Z,71.42
2022-09-07T12:44:45.685Z,70.01
2022-09-07T12:50:10.126Z,69.37
2022-09-07T12:55:28.121Z,69.75
2022-09-07T13:00:50.877Z,69.79
2022-09-07T13:06:07.324Z,70.81
2022-09-07T13:11:20.767Z,70.56
2022-09-07T13:22:30.164Z,69.56
2022-09-07T13:27:43.518Z,66.27
2022-09-07T13:38:13.842Z,67.28
2022-09-07T13:43:19.634Z,67.12
2022-09-07T13:48:36.001Z,64.01
2022-09-07T13:53:55.938Z,65.75
2022-09-07T13:58:57.433Z,63.50
2022-09-07T14:04:06.508Z,65.25
2022-09-07T14:09:22.199Z,65.16
2022-09-07T14:14:26.718Z,63.30
2022-09-07T14:19:39.620Z,62.77
2022-09-07T14:24:54.708Z,64.42
2022-09-07T14:29:56.086Z,63.17
2022-09-07T14:34:58.157Z,62.00
2022-09-07T14:40:00.723Z,60.78
2022-09-07T14:45:20.904Z,63.46
2022-09-07T14:50:34.731Z,63.51
2022-09-07T14:55:42.468Z,63.09
2022-09-07T15:00:46.290Z,61.09
2022-09-07T15:05:48.796Z,60.05
2022-09-07T15:16:34.999Z,61.27
2022-09-07T15:21:39.753Z,59.46
2022-09-07T15:32:09.322Z,59.71
2022-09-07T15:47:53.809Z,59.56
2022-09-07T15:52:55.393Z,59.75
2022-09-07T15:58:10.568Z,58.64
2022-09-07T16:03:12.512Z,58.26
2022-09-07T16:13:35.925Z,58.07
2022-09-07T16:18:39.113Z,56.43
2022-09-07T16:23:44.492Z,58.34
2022-09-07T16:28:48.634Z,58.92
2022-09-07T16:33:50.459Z,57.64
2022-09-07T16:39:01.630Z,58.21
2022-09-07T16:44:03.241Z,57.57
2022-09-07T16:49:06.950Z,58.10
2022-09-07T16:54:11.667Z,55.68
2022-09-07T16:59:20.037Z,55.91
2022-09-07T17:04:21.551Z,55.16
2022-09-07T17:09:26.644Z,57.92
2022-09-07T17:14:28.661Z,56.82
2022-09-07T17:19:30.462Z,57.14
2022-09-07T17:24:32.554Z,57.93
2022-09-07T17:29:37.029Z,58.47
2022-09-07T17:34:38.853Z,57.55
2022-09-07T17:39:40.256Z,57.62
2022-09-07T17:44:41.835Z,58.13
2022-09-07T17:49:43.262Z,58.14
2022-09-07T17:54:44.643Z,58.45
2022-09-07T18:05:07.753Z,58.59
2022-09-07T18:10:09.467Z,58.67
2022-09-07T18:15:11.054Z,59.64
2022-09-07T18:20:12.443Z,59.38
2022-09-07T18:25:13.878Z,59.59
2022-09-07T18:30:15.789Z,60.36
2022-09-07T18:35:17.219Z,60.44
2022-09-07T18:40:21.568Z,61.25
2022-09-07T18:45:30.449Z,61.58
2022-09-07T18:50:32.687Z,63.77
2022-09-07T18:55:34.169Z,61.99
2022-09-07T19:00:35.705Z,61.56
2022-09-07T19:05:53.238Z,64.96
2022-09-07T19:10:54.832Z,62.80
2022-09-07T19:16:06.380Z,64.11
2022-09-07T19:21:13.504Z,63.29
2022-09-07T19:26:17.618Z,64.93
2022-09-07T19:31:19.465Z,67.90
2022-09-07T19:36:21.121Z,66.22
2022-09-07T19:41:22.923Z,69.11
2022-09-07T19:46:25.118Z,69.13
2022-09-07T19:51:26.580Z,70.09
2022-09-07T19:56:28.095Z,65.59
2022-09-07T20:01:29.707Z,64.12
2022-09-07T20:06:32.755Z,68.49
2022-09-07T20:11:35.368Z,65.94
2022-09-07T20:16:38.445Z,68.20
2022-09-07T20:21:40.007Z,71.31
2022-09-07T20:26:41.621Z,67.13
2022-09-07T20:31:43.947Z,65.43
2022-09-07T20:36:45.336Z,66.00
2022-09-07T20:41:47.273Z,67.87
2022-09-07T20:46:48.799Z,69.65
2022-09-07T20:51:50.599Z,67.60
2022-09-07T20:56:51.931Z,72.99
2022-09-07T21:01:53.326Z,68.59
2022-09-07T21:06:54.703Z,72.26
2022-09-07T21:11:57.225Z,72.16
2022-09-07T21:16:58.687Z,71.69
2022-09-07T21:22:00.039Z,73.29
2022-09-07T21:27:01.441Z,68.29
2022-09-07T21:32:03.186Z,67.90
2022-09-07T21:37:04.542Z,69.65
2022-09-07T21:42:05.995Z,72.03
2022-09-07T21:47:07.441Z,70.05
2022-09-07T21:52:08.836Z,70.71
2022-09-07T21:57:10.667Z,70.20
2022-09-07T22:02:12.149Z,70.82
2022-09-07T22:07:13.561Z,71.39
2022-09-07T22:12:14.925Z,72.70
2022-09-07T22:17:16.977Z,71.50
2022-09-07T22:22:18.405Z,71.87
2022-09-07T22:27:19.776Z,68.52
2022-09-07T22:32:21.151Z,71.76
2022-09-07T22:37:22.631Z,72.65
2022-09-07T22:42:24.509Z,72.30
2022-09-07T22:47:25.995Z,75.76
2022-09-07T22:52:27.359Z,76.46
2022-09-07T22:57:28.726Z,70.90
2022-09-07T23:02:30.166Z,72.68
2022-09-07T23:07:31.494Z,73.82
2022-09-07T23:12:33.026Z,72.63
2022-09-07T23:17:34.367Z,77.48
2022-09-07T23:22:35.943Z,78.59
2022-09-07T23:27:37.321Z,74.24
2022-09-07T23:32:38.687Z,74.17
2022-09-07T23:37:40.045Z,72.71
2022-09-07T23:42:41.385Z,73.72
2022-09-07T23:47:42.727Z,71.29
2022-09-07T23:52:44.195Z,70.85
2022-09-07T23:57:45.519Z,74.11
